Time;durP1;ratioP1;P1;durP2;ratioP2;P2;SDS_P1;SDS_P2;PMS_P1;PMS_P2;Temp;Humidity;BMP_temperature;BMP_pressure;BME280_temperature;BME280_humidity;BME280_pressure;Samples;Min_cycle;Max_cycle;Signal;HPM_P1;HPM_P2
2021/10/10 00:02:04;;;;;;;250.57;233.17;;;8.60;99.90;;;;;;5058129;28;20165;-82
2021/10/10 00:04:30;;;;;;;266.55;249.10;;;8.60;99.90;;;;;;5044194;28;20246;-82
2021/10/10 00:06:56;;;;;;;283.00;264.97;;;8.60;99.90;;;;;;5058287;28;20161;-83
2021/10/10 00:09:22;;;;;;;277.90;260.17;;;8.50;99.90;;;;;;5059142;28;20420;-82
2021/10/10 00:11:47;;;;;;;308.77;289.57;;;8.50;99.90;;;;;;5058911;28;20203;-83
2021/10/10 00:14:13;;;;;;;258.53;241.07;;;8.50;99.90;;;;;;5059024;28;20225;-82
2021/10/10 00:16:39;;;;;;;309.33;290.17;;;8.50;99.90;;;;;;5059375;28;20157;-82
2021/10/10 00:19:04;;;;;;;279.83;261.70;;;8.40;99.90;;;;;;5058377;28;20181;-82
2021/10/10 00:21:30;;;;;;;273.20;255.73;;;8.40;99.90;;;;;;5058767;28;20173;-82
2021/10/10 00:23:59;;;;;;;308.63;289.83;;;8.40;99.90;;;;;;5039967;28;20169;-83
2021/10/10 00:26:24;;;;;;;324.88;305.27;;;8.50;99.90;;;;;;5058532;28;20960;-82
2021/10/10 00:28:53;;;;;;;289.30;270.90;;;8.40;99.90;;;;;;5058590;28;20192;-82
2021/10/10 00:31:19;;;;;;;315.13;295.85;;;8.40;99.90;;;;;;5058441;28;20191;-82
2021/10/10 00:33:47;;;;;;;313.15;293.95;;;8.30;99.90;;;;;;5041001;28;20210;-82
2021/10/10 00:36:13;;;;;;;301.17;282.75;;;8.20;99.90;;;;;;5058701;28;20247;-83
2021/10/10 00:38:49;;;;;;;339.30;318.50;;;8.20;99.90;;;;;;5057919;28;20212;-82
2021/10/10 00:41:15;;;;;;;305.45;286.38;;;8.10;99.90;;;;;;5057916;28;20153;-83
2021/10/10 00:43:40;;;;;;;281.60;263.47;;;8.10;99.90;;;;;;5057195;28;20540;-82
2021/10/10 00:46:06;;;;;;;299.93;281.17;;;8.00;99.90;;;;;;5039867;28;20175;-82
2021/10/10 00:48:35;;;;;;;286.43;268.10;;;8.00;99.90;;;;;;5039751;28;20228;-83
2021/10/10 00:51:01;;;;;;;313.98;294.70;;;8.00;99.90;;;;;;5058263;28;20234;-83
2021/10/10 00:53:26;;;;;;;302.27;283.23;;;8.00;99.90;;;;;;5057341;28;20215;-83
2021/10/10 00:55:54;;;;;;;304.27;285.93;;;8.10;99.90;;;;;;5057733;28;20168;-83
2021/10/10 00:58:25;;;;;;;235.77;219.55;;;8.10;99.90;;;;;;5057753;28;20246;-82
2021/10/10 01:00:52;;;;;;;262.52;244.90;;;8.00;99.90;;;;;;5058545;28;20160;-82
2021/10/10 01:03:21;;;;;;;284.15;266.23;;;8.00;99.90;;;;;;5136772;22;20198;-79
2021/10/10 01:09:14;;;;;;;;;;;;;;;;;;;;;
2021/10/10 01:11:52;;;;;;;264.58;246.77;;;7.90;99.90;;;;;;5055995;28;20244;-79
2021/10/10 01:14:43;;;;;;;276.45;258.83;;;7.90;99.90;;;;;;5056227;28;20264;-79
2021/10/10 01:17:38;;;;;;;244.10;227.70;;;7.90;99.90;;;;;;5046501;28;20254;-79
2021/10/10 01:20:22;;;;;;;299.80;281.40;;;7.80;99.90;;;;;;5055981;28;20699;-79
2021/10/10 01:23:19;;;;;;;291.77;272.65;;;7.80;99.90;;;;;;5056018;28;20157;-79
2021/10/10 01:26:01;;;;;;;265.00;247.75;;;7.70;99.90;;;;;;5035949;28;20177;-79
2021/10/10 01:29:01;;;;;;;262.58;244.80;;;7.70;99.90;;;;;;5037926;28;20185;-79
2021/10/10 01:31:37;;;;;;;300.52;282.13;;;7.70;99.90;;;;;;5049718;28;20212;-79
2021/10/10 01:34:35;;;;;;;275.77;258.55;;;7.70;99.90;;;;;;5038386;28;20681;-79
2021/10/10 01:37:00;;;;;;;252.57;235.65;;;7.60;99.90;;;;;;5030705;28;20183;-79
2021/10/10 01:39:33;;;;;;;248.67;231.73;;;7.60;99.90;;;;;;5055605;28;20582;-79
2021/10/10 01:42:10;;;;;;;268.10;250.43;;;7.50;99.90;;;;;;5037594;28;20658;-79
2021/10/10 01:44:56;;;;;;;253.07;236.27;;;7.50;99.90;;;;;;5037315;28;20542;-78
2021/10/10 01:47:57;;;;;;;275.08;257.67;;;7.50;99.90;;;;;;5054837;28;20270;-78
2021/10/10 01:51:13;;;;;;;303.75;284.85;;;7.40;99.90;;;;;;5036444;28;20199;-79
2021/10/10 01:53:58;;;;;;;;;;;;;;;;;;;;;
2021/10/10 01:56:54;;;;;;;255.50;238.73;;;7.40;99.90;;;;;;5055989;28;20175;-79
2021/10/10 01:59:51;;;;;;;242.65;226.48;;;7.40;99.90;;;;;;5055778;28;20164;-79
2021/10/10 02:02:50;;;;;;;245.68;229.10;;;7.40;99.90;;;;;;5055387;28;20222;-79
2021/10/10 02:05:54;;;;;;;;;;;;;;;;;;;;;
2021/10/10 02:08:20;;;;;;;295.13;276.58;;;7.30;99.90;;;;;;5055011;28;20548;-80
2021/10/10 02:11:20;;;;;;;269.10;251.37;;;7.30;99.90;;;;;;5054693;28;20347;-79
2021/10/10 02:14:01;;;;;;;259.30;242.60;;;7.30;99.90;;;;;;5017997;28;20416;-79
2021/10/10 02:16:43;;;;;;;255.10;237.55;;;7.40;99.90;;;;;;5037092;28;20156;-79
2021/10/10 02:19:17;;;;;;;262.05;245.05;;;7.40;99.90;;;;;;5055252;28;20148;-79
2021/10/10 02:21:47;;;;;;;221.05;205.35;;;7.40;99.90;;;;;;5021413;28;20156;-79
2021/10/10 02:24:24;;;;;;;224.52;209.20;;;7.30;99.90;;;;;;5036726;28;20196;-79
2021/10/10 02:26:58;;;;;;;244.82;228.55;;;7.30;99.90;;;;;;5037069;28;20171;-79
2021/10/10 02:30:01;;;;;;;217.60;201.25;;;7.30;99.90;;;;;;5054734;28;20230;-79
2021/10/10 02:32:50;;;;;;;257.85;240.65;;;7.30;99.90;;;;;;4985242;28;20176;-79
2021/10/10 02:35:29;;;;;;;263.05;246.02;;;7.20;99.90;;;;;;5044294;28;20658;-79
2021/10/10 02:38:16;;;;;;;236.18;220.02;;;7.10;99.90;;;;;;5054509;28;20172;-79
2021/10/10 02:40:56;;;;;;;267.45;250.15;;;7.00;99.90;;;;;;5036802;28;20180;-79
2021/10/10 02:43:29;;;;;;;283.27;265.38;;;6.90;99.90;;;;;;5054484;28;20217;-79
2021/10/10 02:46:05;;;;;;;271.30;254.05;;;6.90;99.90;;;;;;5055003;28;20628;-79
2021/10/10 02:48:43;;;;;;;286.52;268.42;;;6.80;99.90;;;;;;5058533;28;20184;-79
2021/10/10 02:51:41;;;;;;;;;;;;;;;;;;;;;
2021/10/10 02:54:37;;;;;;;249.82;233.40;;;6.70;99.90;;;;;;5058702;28;20144;-80
2021/10/10 02:57:25;;;;;;;255.13;238.38;;;6.60;99.90;;;;;;5058618;28;20180;-79
2021/10/10 03:00:21;;;;;;;268.25;250.98;;;6.60;99.90;;;;;;5058688;28;20232;-79
2021/10/10 03:03:28;;;;;;;268.23;250.95;;;6.50;99.90;;;;;;5058293;28;20179;-79
2021/10/10 03:06:02;;;;;;;251.90;234.95;;;6.50;99.90;;;;;;5057469;28;20200;-79
2021/10/10 03:08:43;;;;;;;;;;;;;;;;;;;;;
2021/10/10 03:11:18;;;;;;;285.00;266.95;;;6.40;99.90;;;;;;5058358;28;20194;-80
2021/10/10 03:14:13;;;;;;;258.35;241.65;;;6.40;99.90;;;;;;5039783;28;20164;-80
2021/10/10 03:17:17;;;;;;;237.25;221.40;;;6.30;99.90;;;;;;5039972;28;20179;-79
2021/10/10 03:20:12;;;;;;;268.30;251.35;;;6.30;99.90;;;;;;5058131;28;20572;-79
2021/10/10 03:22:43;;;;;;;277.70;259.80;;;6.30;99.90;;;;;;5039984;28;20167;-81
2021/10/10 03:25:32;;;;;;;295.30;277.10;;;6.30;99.90;;;;;;5058236;28;20274;-79
2021/10/10 03:28:08;;;;;;;249.32;232.82;;;6.30;99.90;;;;;;5047567;28;20256;-81
2021/10/10 03:30:40;;;;;;;286.20;268.23;;;6.20;99.90;;;;;;5039983;28;20617;-81
2021/10/10 03:33:31;;;;;;;268.35;251.10;;;6.20;99.90;;;;;;5039988;28;20174;-80
2021/10/10 03:36:16;;;;;;;293.38;274.70;;;6.20;99.90;;;;;;5058210;28;20622;-81
2021/10/10 03:38:55;;;;;;;260.70;243.70;;;6.10;99.90;;;;;;5057894;28;20202;-80
2021/10/10 03:41:26;;;;;;;289.00;271.20;;;6.10;99.90;;;;;;5058071;28;20168;-80
2021/10/10 03:43:57;;;;;;;277.70;260.55;;;6.10;99.90;;;;;;5058677;28;20171;-81
2021/10/10 03:46:25;;;;;;;264.92;247.75;;;6.00;99.90;;;;;;5058079;28;20152;-80
2021/10/10 03:49:12;;;;;;;253.18;236.50;;;6.00;99.90;;;;;;5057594;28;20192;-80
2021/10/10 03:52:17;;;;;;;291.88;273.85;;;5.90;99.90;;;;;;5057580;28;20195;-81
2021/10/10 03:57:31;;;;;;;297.00;278.73;;;5.90;99.90;;;;;;5057698;28;20624;-81
2021/10/10 04:00:16;;;;;;;258.33;241.85;;;5.90;99.90;;;;;;5056796;28;20668;-80
2021/10/10 04:03:02;;;;;;;296.52;278.42;;;5.90;99.90;;;;;;5057176;28;20207;-80
2021/10/10 04:05:51;;;;;;;281.75;264.02;;;5.90;99.90;;;;;;5058174;28;20180;-81
2021/10/10 04:08:30;;;;;;;251.43;234.35;;;5.90;99.90;;;;;;5036602;28;20264;-80
2021/10/10 04:11:24;;;;;;;267.17;250.15;;;5.90;99.90;;;;;;5057375;28;20184;-80
2021/10/10 04:13:57;;;;;;;282.88;264.80;;;6.00;99.90;;;;;;4976642;28;20180;-80
2021/10/10 04:16:41;;;;;;;287.50;269.13;;;5.90;99.90;;;;;;5033434;28;20172;-81
2021/10/10 04:19:54;;;;;;;297.25;279.30;;;5.90;99.90;;;;;;5056252;28;20184;-81
2021/10/10 04:22:07;;;;;;;303.45;285.17;;;5.90;99.90;;;;;;5048316;28;20251;-81
2021/10/10 04:25:24;;;;;;;281.98;263.65;;;6.00;99.90;;;;;;5056463;28;20188;-81
2021/10/10 04:31:41;;;;;;;346.70;326.50;;;6.20;99.90;;;;;;5025350;28;20690;-81
2021/10/10 04:35:07;;;;;;;;;;;;;;;;;;;;;
2021/10/10 04:37:46;;;;;;;312.83;293.90;;;6.30;99.90;;;;;;5056107;28;20683;-81
2021/10/10 04:40:27;;;;;;;319.05;299.90;;;6.40;99.90;;;;;;5056481;28;20207;-80
2021/10/10 04:43:12;;;;;;;330.40;311.15;;;6.40;99.90;;;;;;5056829;28;20159;-81
2021/10/10 04:46:11;;;;;;;340.23;320.30;;;6.40;99.90;;;;;;5038606;28;20694;-81
2021/10/10 04:48:48;;;;;;;319.20;299.83;;;6.40;99.90;;;;;;5055979;28;20177;-81
2021/10/10 04:51:30;;;;;;;334.80;314.98;;;6.40;99.90;;;;;;5037887;28;20293;-81
2021/10/10 04:54:03;;;;;;;321.70;303.02;;;6.40;99.90;;;;;;5036703;28;20185;-81
2021/10/10 04:56:40;;;;;;;330.55;310.95;;;6.40;99.90;;;;;;5056067;28;20232;-80
2021/10/10 04:59:27;;;;;;;357.88;337.80;;;6.40;99.90;;;;;;5038505;28;20224;-80
2021/10/10 05:07:58;;;;;;;338.58;318.77;;;6.40;99.90;;;;;;5023795;28;20620;-81
2021/10/10 05:10:54;;;;;;;353.40;333.50;;;6.30;99.90;;;;;;5055705;28;20185;-81
2021/10/10 05:13:33;;;;;;;353.33;332.63;;;6.30;99.90;;;;;;5056101;28;20157;-81
2021/10/10 05:16:28;;;;;;;343.23;322.98;;;6.20;99.90;;;;;;5056484;28;20180;-81
2021/10/10 05:19:10;;;;;;;320.92;301.98;;;6.30;99.90;;;;;;5055913;28;20192;-81
2021/10/10 05:22:16;;;;;;;315.52;296.48;;;6.30;99.90;;;;;;5056472;28;20177;-81
2021/10/10 05:27:48;;;;;;;303.52;285.23;;;6.40;99.90;;;;;;4994974;28;20202;-81
2021/10/10 05:30:35;;;;;;;301.42;282.40;;;6.40;99.90;;;;;;4994444;28;20214;-82
2021/10/10 05:33:26;;;;;;;297.83;279.30;;;6.50;99.90;;;;;;5027002;28;20643;-81
2021/10/10 05:36:41;;;;;;;327.95;309.00;;;6.50;99.90;;;;;;5038069;28;20184;-81
2021/10/10 05:39:54;;;;;;;;;;;;;;;;;;;;;
2021/10/10 05:42:32;;;;;;;322.90;303.70;;;6.30;99.90;;;;;;5056174;28;20164;-81
2021/10/10 05:45:15;;;;;;;296.77;279.00;;;6.20;99.90;;;;;;5056163;28;20167;-81
2021/10/10 05:48:06;;;;;;;304.02;285.63;;;6.10;99.90;;;;;;5035626;28;20249;-80
2021/10/10 05:50:47;;;;;;;301.98;283.98;;;6.00;99.90;;;;;;5037518;28;20200;-81
2021/10/10 05:53:55;;;;;;;295.42;277.55;;;6.00;99.90;;;;;;5055889;28;20282;-81
2021/10/10 05:57:18;;;;;;;307.67;289.38;;;5.90;99.90;;;;;;5055360;28;20165;-80
2021/10/10 06:03:37;;;;;;;313.15;294.77;;;5.80;99.90;;;;;;5021254;28;20259;-80
2021/10/10 06:06:07;;;;;;;279.67;262.67;;;5.80;99.90;;;;;;4974389;28;20278;-80
2021/10/10 06:08:56;;;;;;;295.80;277.42;;;5.80;99.90;;;;;;4990533;28;20214;-80
2021/10/10 06:11:53;;;;;;;317.90;299.70;;;5.70;99.90;;;;;;5055293;28;20184;-80
2021/10/10 06:15:36;;;;;;;295.88;277.92;;;5.80;99.90;;;;;;5037153;28;20183;-81
2021/10/10 06:20:42;;;;;;;305.38;286.73;;;5.90;99.90;;;;;;4973796;28;20239;-81
2021/10/10 06:23:22;;;;;;;337.63;317.92;;;6.00;99.90;;;;;;4973309;28;20175;-81
2021/10/10 06:26:02;;;;;;;286.75;268.83;;;6.00;99.90;;;;;;4974082;28;20542;-81
2021/10/10 06:28:34;;;;;;;273.80;256.65;;;6.00;99.90;;;;;;5032702;28;20200;-81
2021/10/10 06:31:56;;;;;;;284.23;266.63;;;6.10;99.90;;;;;;5054697;28;20192;-81
2021/10/10 06:35:14;;;;;;;288.67;270.80;;;6.20;99.90;;;;;;4956892;28;20175;-81
2021/10/10 06:37:49;;;;;;;319.55;301.25;;;6.40;99.90;;;;;;4914019;29;20211;-82
2021/10/10 06:41:20;;;;;;;305.83;287.17;;;6.40;99.90;;;;;;4942589;28;20182;-81
2021/10/10 06:44:18;;;;;;;285.65;266.95;;;6.50;99.90;;;;;;4988970;28;20172;-82
2021/10/10 06:46:58;;;;;;;334.20;314.67;;;6.60;99.90;;;;;;5036369;28;20211;-81
2021/10/10 06:49:58;;;;;;;299.90;281.17;;;6.60;99.90;;;;;;5054810;28;20157;-82
2021/10/10 06:52:40;;;;;;;331.73;311.95;;;6.70;99.90;;;;;;4973814;28;20202;-81
2021/10/10 06:55:18;;;;;;;375.13;353.98;;;6.70;99.90;;;;;;5026303;28;20298;-81
2021/10/10 07:01:17;;;;;;;286.52;267.88;;;6.80;99.90;;;;;;4993440;28;20178;-80
2021/10/10 07:03:43;;;;;;;288.63;270.02;;;7.00;99.90;;;;;;5083018;23;20220;-81
2021/10/10 07:06:09;;;;;;;363.50;343.13;;;7.10;99.90;;;;;;5036256;28;20632;-81
2021/10/10 07:08:35;;;;;;;331.70;312.50;;;7.10;99.90;;;;;;5034675;28;20419;-81
2021/10/10 07:11:00;;;;;;;346.47;325.83;;;7.10;99.90;;;;;;5036661;28;20189;-81
2021/10/10 07:13:26;;;;;;;342.70;322.23;;;7.10;99.90;;;;;;5036617;28;20158;-81
2021/10/10 07:15:54;;;;;;;313.90;294.53;;;7.10;99.90;;;;;;5036403;28;20270;-81
2021/10/10 07:18:29;;;;;;;335.60;315.77;;;7.30;99.90;;;;;;5018464;28;20185;-81
2021/10/10 07:21:42;;;;;;;336.67;316.10;;;7.30;99.90;;;;;;5035893;28;20149;-81
2021/10/10 07:26:29;;;;;;;331.95;311.45;;;7.40;99.90;;;;;;4998600;28;20265;-81
2021/10/10 07:28:55;;;;;;;323.60;303.50;;;7.50;99.90;;;;;;5035523;28;20227;-82
2021/10/10 07:31:21;;;;;;;337.90;317.47;;;7.50;99.90;;;;;;5035733;28;20598;-82
2021/10/10 07:33:46;;;;;;;359.97;339.00;;;7.50;99.90;;;;;;5038334;28;20256;-82
2021/10/10 07:36:12;;;;;;;396.57;373.83;;;7.50;99.90;;;;;;5039507;28;20169;-81
2021/10/10 07:38:39;;;;;;;400.65;377.70;;;7.60;99.90;;;;;;5038882;28;20185;-81
2021/10/10 07:41:05;;;;;;;364.15;342.40;;;7.60;99.90;;;;;;5020392;28;20177;-81
2021/10/10 07:43:31;;;;;;;424.83;400.80;;;7.60;99.90;;;;;;5038879;28;20165;-81
2021/10/10 07:46:18;;;;;;;427.40;403.45;;;7.60;99.90;;;;;;5038829;28;20162;-81
2021/10/10 07:48:44;;;;;;;381.20;359.10;;;7.70;99.90;;;;;;5021041;28;20684;-81
2021/10/10 07:51:10;;;;;;;379.37;357.67;;;7.80;99.90;;;;;;5039230;28;20185;-82
2021/10/10 07:53:35;;;;;;;391.60;368.37;;;7.90;99.90;;;;;;5021468;28;20169;-81
2021/10/10 07:56:01;;;;;;;396.27;373.27;;;8.00;99.90;;;;;;5038952;28;20891;-81
2021/10/10 07:58:27;;;;;;;437.83;413.60;;;8.00;99.90;;;;;;5039316;28;20211;-81
2021/10/10 08:00:52;;;;;;;423.63;400.10;;;8.00;99.90;;;;;;5038951;28;20170;-81
2021/10/10 08:03:18;;;;;;;409.80;386.20;;;8.00;99.90;;;;;;5020994;28;20192;-81
2021/10/10 08:05:44;;;;;;;427.60;403.63;;;8.10;99.90;;;;;;5021442;28;20191;-81
2021/10/10 08:08:11;;;;;;;487.63;460.48;;;8.00;99.90;;;;;;5021661;28;20227;-82
2021/10/10 08:10:38;;;;;;;436.70;412.42;;;8.10;99.90;;;;;;5038555;28;20177;-81
2021/10/10 08:13:04;;;;;;;438.30;413.30;;;8.20;99.90;;;;;;5038295;28;20166;-82
2021/10/10 08:15:30;;;;;;;477.30;450.65;;;8.30;99.90;;;;;;5021291;28;20213;-81
2021/10/10 08:17:56;;;;;;;477.27;451.02;;;8.30;99.90;;;;;;5038505;28;20364;-81
2021/10/10 08:20:22;;;;;;;406.67;382.77;;;8.40;99.90;;;;;;5038710;28;20225;-81
2021/10/10 08:22:48;;;;;;;475.17;448.90;;;8.40;99.90;;;;;;5038167;28;20698;-81
2021/10/10 08:25:15;;;;;;;464.65;438.58;;;8.50;99.90;;;;;;5038279;28;20591;-81
2021/10/10 08:27:43;;;;;;;450.13;425.17;;;8.50;99.90;;;;;;5038080;28;20181;-81
2021/10/10 08:30:13;;;;;;;439.45;414.80;;;8.70;99.90;;;;;;5037754;28;20196;-81
2021/10/10 08:32:40;;;;;;;486.38;459.42;;;8.70;99.90;;;;;;5020463;28;20150;-82
2021/10/10 08:35:06;;;;;;;474.25;448.00;;;8.80;99.90;;;;;;5037769;28;20162;-81
2021/10/10 08:37:33;;;;;;;489.05;461.17;;;8.80;99.90;;;;;;5038129;28;20186;-81
2021/10/10 08:39:58;;;;;;;484.92;458.13;;;8.80;99.90;;;;;;5020889;28;20169;-82
2021/10/10 08:42:32;;;;;;;458.17;432.33;;;8.90;99.90;;;;;;5037546;28;20240;-81
2021/10/10 08:45:07;;;;;;;464.67;438.17;;;8.90;99.90;;;;;;5020065;28;20546;-81
2021/10/10 08:47:34;;;;;;;476.30;449.45;;;9.00;99.90;;;;;;5020700;28;20189;-82
2021/10/10 08:50:01;;;;;;;486.63;459.27;;;9.00;99.90;;;;;;5019510;28;20196;-82
2021/10/10 08:52:27;;;;;;;486.90;459.50;;;9.00;99.90;;;;;;5037784;28;20161;-81
2021/10/10 08:54:53;;;;;;;477.92;451.27;;;9.00;99.90;;;;;;5037641;28;20165;-81
2021/10/10 08:57:20;;;;;;;472.77;446.07;;;9.10;99.90;;;;;;5019273;28;20220;-81
2021/10/10 08:59:51;;;;;;;485.65;457.55;;;9.20;99.90;;;;;;5037236;28;20533;-82
2021/10/10 09:02:20;;;;;;;492.08;464.48;;;9.30;99.90;;;;;;5019425;28;20550;-81
2021/10/10 09:04:49;;;;;;;466.40;440.38;;;9.40;99.90;;;;;;5019917;28;20224;-81
2021/10/10 09:07:15;;;;;;;511.17;482.70;;;9.40;99.90;;;;;;5037455;28;20669;-81
2021/10/10 09:09:42;;;;;;;488.80;461.00;;;9.50;99.90;;;;;;5037600;28;20176;-81
2021/10/10 09:12:13;;;;;;;508.48;480.05;;;9.60;99.90;;;;;;5020390;28;20231;-82
2021/10/10 09:14:51;;;;;;;482.23;454.67;;;9.70;99.90;;;;;;5037169;28;20157;-81
2021/10/10 09:17:24;;;;;;;499.02;471.40;;;9.90;99.90;;;;;;5037350;28;20595;-81
2021/10/10 09:19:55;;;;;;;473.58;446.10;;;9.90;99.90;;;;;;5037083;28;20173;-81
2021/10/10 09:22:23;;;;;;;462.48;436.35;;;10.00;99.90;;;;;;5018976;28;20291;-81
2021/10/10 09:24:53;;;;;;;481.08;453.80;;;10.10;99.90;;;;;;5036486;28;20608;-81
2021/10/10 09:27:22;;;;;;;461.98;435.60;;;10.30;99.90;;;;;;5019128;28;20274;-81
2021/10/10 09:29:51;;;;;;;480.38;452.83;;;10.40;99.90;;;;;;5018686;28;20198;-81
2021/10/10 09:32:24;;;;;;;469.88;442.45;;;10.50;99.90;;;;;;5018682;28;20247;-81
2021/10/10 09:34:51;;;;;;;459.80;433.58;;;10.70;99.90;;;;;;5037680;28;20489;-81
2021/10/10 09:37:30;;;;;;;461.15;434.77;;;10.70;99.90;;;;;;5037001;28;20177;-81
2021/10/10 09:42:39;;;;;;;360.70;339.00;;;11.00;99.90;;;;;;5037239;28;20161;-81
2021/10/10 09:45:15;;;;;;;285.90;267.58;;;11.20;99.90;;;;;;5036440;28;20683;-81
2021/10/10 09:47:57;;;;;;;238.73;222.02;;;11.40;99.90;;;;;;5036733;28;20204;-81
2021/10/10 09:50:24;;;;;;;316.85;297.45;;;11.60;99.90;;;;;;5019326;28;20185;-81
2021/10/10 09:53:09;;;;;;;312.15;292.17;;;11.60;99.90;;;;;;5036198;28;20253;-81
2021/10/10 09:55:37;;;;;;;297.95;278.92;;;11.80;99.90;;;;;;5018464;28;20211;-81
2021/10/10 09:58:03;;;;;;;300.02;280.60;;;12.00;99.90;;;;;;5035607;28;20182;-81
2021/10/10 10:00:34;;;;;;;261.30;241.82;;;12.20;99.90;;;;;;5036372;28;20184;-82
2021/10/10 10:03:10;;;;;;;132.35;118.80;;;12.20;99.90;;;;;;5036507;28;20165;-81
2021/10/10 10:05:37;;;;;;;103.07;74.40;;;12.40;99.90;;;;;;5018924;28;20199;-81
2021/10/10 10:08:04;;;;;;;101.65;69.07;;;12.40;99.90;;;;;;5036631;28;20247;-81
2021/10/10 10:10:31;;;;;;;113.97;101.57;;;12.50;99.90;;;;;;5036076;28;20272;-81
2021/10/10 10:12:59;;;;;;;127.80;114.63;;;12.70;99.90;;;;;;5018377;28;20592;-81
2021/10/10 10:15:31;;;;;;;136.93;123.43;;;13.10;99.90;;;;;;5036445;28;20836;-82
2021/10/10 10:17:58;;;;;;;127.03;113.87;;;13.00;99.90;;;;;;5035904;28;20419;-81
2021/10/10 10:20:29;;;;;;;110.70;74.40;;;13.00;99.90;;;;;;5035671;28;20438;-81
2021/10/10 10:22:56;;;;;;;105.83;68.07;;;13.20;99.90;;;;;;5019455;28;20399;-81
2021/10/10 10:25:26;;;;;;;96.67;47.27;;;13.00;99.90;;;;;;5017585;28;20962;-81
2021/10/10 10:27:53;;;;;;;100.00;57.60;;;13.20;99.90;;;;;;5035546;28;20424;-81
2021/10/10 10:30:23;;;;;;;96.93;49.90;;;13.40;99.90;;;;;;5035377;28;20454;-81
2021/10/10 10:32:52;;;;;;;92.27;47.57;;;13.70;99.90;;;;;;5036331;28;20404;-81
2021/10/10 10:35:21;;;;;;;92.53;50.07;;;13.90;99.90;;;;;;5036220;28;20404;-81
2021/10/10 10:37:49;;;;;;;93.57;49.93;;;14.00;99.90;;;;;;5018362;28;20448;-81
2021/10/10 10:40:14;;;;;;;91.93;52.07;;;13.80;99.90;;;;;;5035404;28;20410;-81
2021/10/10 10:42:41;;;;;;;89.70;36.40;;;14.00;99.90;;;;;;5035696;28;20490;-81
2021/10/10 10:45:28;;;;;;;90.87;39.13;;;14.00;99.90;;;;;;5035486;28;20177;-81
2021/10/10 10:47:56;;;;;;;93.40;49.23;;;14.20;99.90;;;;;;5035526;28;20980;-81
2021/10/10 10:50:26;;;;;;;88.50;42.57;;;14.30;99.90;;;;;;5017550;28;20450;-81
2021/10/10 10:53:07;;;;;;;91.67;46.50;;;14.50;99.90;;;;;;5035542;28;20417;-82
2021/10/10 10:55:37;;;;;;;114.97;101.53;;;14.60;99.90;;;;;;5017940;28;20400;-81
2021/10/10 10:58:05;;;;;;;100.07;77.07;;;14.90;99.90;;;;;;5035350;28;20412;-82
2021/10/10 11:01:02;;;;;;;91.20;44.07;;;15.10;99.90;;;;;;5035666;28;20403;-81
2021/10/10 11:03:29;;;;;;;86.00;36.37;;;15.30;99.90;;;;;;5035432;28;20403;-80
2021/10/10 11:06:16;;;;;;;88.17;34.10;;;15.60;99.90;;;;;;5018004;28;20439;-81
2021/10/10 11:08:43;;;;;;;84.47;29.10;;;15.70;99.90;;;;;;5037993;28;20416;-81
2021/10/10 11:11:18;;;;;;;78.87;25.43;;;16.00;97.20;;;;;;5040017;28;20449;-81
2021/10/10 11:13:45;;;;;;;85.20;32.03;;;16.00;97.40;;;;;;5021630;28;20412;-81
2021/10/10 11:16:28;;;;;;;88.50;41.50;;;16.30;91.40;;;;;;5022308;28;20416;-81
2021/10/10 11:18:58;;;;;;;95.30;60.10;;;16.20;71.50;;;;;;5039533;28;20425;-81
2021/10/10 11:21:36;;;;;;;90.37;49.63;;;16.10;87.50;;;;;;5038720;28;20433;-81
2021/10/10 11:24:07;;;;;;;96.27;63.30;;;16.30;90.10;;;;;;5039604;28;20382;-81
2021/10/10 11:26:36;;;;;;;83.97;35.50;;;16.40;89.30;;;;;;5021392;28;20409;-81
2021/10/10 11:29:13;;;;;;;88.97;47.87;;;16.50;73.00;;;;;;5021522;28;20425;-81
2021/10/10 11:31:40;;;;;;;102.67;70.20;;;16.40;73.90;;;;;;5021375;28;20527;-81
2021/10/10 11:34:12;;;;;;;94.40;61.13;;;16.40;70.60;;;;;;5039783;28;20470;-81
2021/10/10 11:36:37;;;;;;;91.80;60.33;;;16.50;65.60;;;;;;5039488;28;20412;-81
2021/10/10 11:39:04;;;;;;;96.20;76.57;;;16.50;64.80;;;;;;5039910;28;20423;-81
2021/10/10 11:41:30;;;;;;;90.33;53.50;;;16.60;64.80;;;;;;5039121;28;20189;-81
2021/10/10 11:44:07;;;;;;;87.60;47.93;;;16.70;57.80;;;;;;5021313;28;20418;-81
2021/10/10 11:46:53;;;;;;;87.63;44.50;;;16.90;55.70;;;;;;5021720;28;20176;-82
2021/10/10 11:50:02;;;;;;;89.57;50.77;;;16.90;52.80;;;;;;5039442;28;20385;-81
2021/10/10 11:55:05;;;;;;;86.83;45.50;;;16.80;51.00;;;;;;5039202;28;20391;-82
2021/10/10 11:57:31;;;;;;;115.90;103.27;;;16.80;53.70;;;;;;5021221;28;20419;-81
2021/10/10 12:00:01;;;;;;;110.97;98.93;;;16.80;48.10;;;;;;5021009;28;20787;-81
2021/10/10 12:02:35;;;;;;;93.47;63.63;;;16.70;48.70;;;;;;5039430;28;20165;-82
2021/10/10 12:05:08;;;;;;;96.77;75.40;;;16.70;51.90;;;;;;5039112;28;20450;-81
2021/10/10 12:07:37;;;;;;;90.07;51.60;;;16.90;62.10;;;;;;5021497;28;20432;-81
2021/10/10 12:10:05;;;;;;;89.77;50.27;;;16.90;57.40;;;;;;5039103;28;20439;-82
2021/10/10 12:12:31;;;;;;;89.07;45.80;;;16.90;52.40;;;;;;5038700;28;20503;-81
2021/10/10 12:14:59;;;;;;;91.63;64.33;;;17.10;56.70;;;;;;5021908;28;20435;-81
2021/10/10 12:17:40;;;;;;;88.93;43.37;;;17.10;51.30;;;;;;5020987;28;20188;-81
2021/10/10 12:20:15;;;;;;;90.03;55.03;;;16.70;59.90;;;;;;5019906;28;20959;-82
2021/10/10 12:22:44;;;;;;;113.53;101.20;;;16.50;60.50;;;;;;5021368;28;20410;-81
2021/10/10 12:25:28;;;;;;;101.37;88.77;;;16.40;56.20;;;;;;5038155;28;20448;-81
2021/10/10 12:27:55;;;;;;;118.10;106.27;;;16.40;67.90;;;;;;5021493;28;20440;-82
2021/10/10 12:30:29;;;;;;;104.63;93.53;;;16.60;59.30;;;;;;5020670;28;20899;-81
2021/10/10 12:32:56;;;;;;;116.80;104.50;;;16.60;56.60;;;;;;5038682;28;20425;-81
2021/10/10 12:35:22;;;;;;;119.13;107.27;;;16.80;56.80;;;;;;5022738;28;20420;-81
2021/10/10 12:37:53;;;;;;;104.70;93.37;;;16.80;53.40;;;;;;5039585;28;20451;-81
2021/10/10 12:40:36;;;;;;;91.57;56.47;;;16.90;49.40;;;;;;5039244;28;20173;-81
2021/10/10 12:43:03;;;;;;;85.97;48.27;;;17.00;47.10;;;;;;5021792;28;20475;-81
2021/10/10 12:45:30;;;;;;;93.67;68.10;;;17.10;45.00;;;;;;5021322;28;20515;-81
2021/10/10 12:48:00;;;;;;;123.27;111.13;;;17.10;41.10;;;;;;5021474;28;20436;-81
2021/10/10 12:50:26;;;;;;;91.93;47.57;;;17.00;46.60;;;;;;5038946;28;20444;-81
2021/10/10 12:52:51;;;;;;;82.30;36.73;;;17.00;41.90;;;;;;5039856;28;20495;-81
2021/10/10 12:55:27;;;;;;;83.77;40.17;;;17.00;35.10;;;;;;5039465;28;20166;-81
2021/10/10 12:57:57;;;;;;;112.50;101.10;;;17.00;32.40;;;;;;5038437;28;20522;-81
2021/10/10 13:00:25;;;;;;;108.97;97.67;;;16.60;46.30;;;;;;5020408;28;20411;-81
2021/10/10 13:02:51;;;;;;;90.70;56.90;;;16.70;52.40;;;;;;5038360;28;20481;-81
2021/10/10 13:05:25;;;;;;;93.60;67.70;;;16.70;45.60;;;;;;5122894;23;20487;-80
2021/10/10 13:07:50;;;;;;;82.53;38.90;;;16.70;48.40;;;;;;5040059;28;20540;-80
2021/10/10 13:10:17;;;;;;;84.67;34.43;;;16.80;47.00;;;;;;5039718;28;20526;-80
2021/10/10 13:12:43;;;;;;;84.40;38.10;;;16.70;40.50;;;;;;5057059;28;20250;-79
2021/10/10 13:15:10;;;;;;;82.00;35.67;;;16.60;38.30;;;;;;5058051;28;20887;-81
2021/10/10 13:17:36;;;;;;;94.53;63.77;;;16.60;45.00;;;;;;5040008;28;20189;-80
2021/10/10 13:20:03;;;;;;;82.60;40.07;;;16.60;35.70;;;;;;5057747;28;20491;-80
2021/10/10 13:22:33;;;;;;;80.30;34.13;;;16.60;36.30;;;;;;5057700;28;20502;-80
2021/10/10 13:25:00;;;;;;;85.30;36.87;;;16.50;47.50;;;;;;5039902;28;20835;-80
2021/10/10 13:27:26;;;;;;;84.87;44.43;;;16.40;44.80;;;;;;5039230;28;20462;-80
2021/10/10 13:29:51;;;;;;;85.10;49.20;;;16.30;38.50;;;;;;5057243;28;20410;-81
2021/10/10 13:32:18;;;;;;;88.97;55.97;;;16.30;29.80;;;;;;5039451;28;20621;-80
2021/10/10 13:34:45;;;;;;;84.27;44.50;;;16.30;30.00;;;;;;5039378;28;20263;-80
2021/10/10 13:37:11;;;;;;;84.07;33.67;;;16.30;36.30;;;;;;5057653;28;20426;-81
2021/10/10 13:39:36;;;;;;;82.47;31.27;;;16.30;42.30;;;;;;5057828;28;20406;-80
2021/10/10 13:42:02;;;;;;;80.33;30.40;;;16.30;38.40;;;;;;5057663;28;20186;-80
2021/10/10 13:44:28;;;;;;;82.60;41.87;;;16.20;38.90;;;;;;5057004;28;20215;-80
2021/10/10 13:46:54;;;;;;;83.43;41.03;;;16.20;46.10;;;;;;5057689;28;20179;-80
2021/10/10 13:49:19;;;;;;;89.87;57.57;;;16.20;44.50;;;;;;5039063;28;20186;-81